Abisko, Sweden

3:11 AM CEST on September 05, 2015 (GMT +0200)
Solpiggen | | Change Station
CLOSE
Current Station
Personal Weather Station
Location: Riksgränsen, NORRBOTTEN COUNTY
Elevation: 1623 ft
Nearby Weather Stations

Elev 1623 ft 68.43 °N, 18.12 °E | Updated 2 seconds ago

Mostly Cloudy
Mostly Cloudy
42.6 °F
Feels Like 43 °F
N
1.6
Wind Variable Wind from ENE
Gusts 3.8 mph

Today
High -- | Low -- °F
--% Chance of Precip.
Yesterday
High -- | Low -- °F
Precip. -- in
5:22 AM 8:02 PM
Waning Gibbous, 54% visible
Pressure 29.62 in
Visibility 6.2 miles
Clouds Few 100 ft
Scattered Clouds 1100 ft
Mostly Cloudy 15000 ft
Windchill 43 °F
Dew Point 34 °F
Humidity 70%
Rainfall 0.00 in
Snow Depth Not available.
UV 0 out of 12
Pollen Not available.
Air Quality Not available.
Flu Activity Not available.
METAR ENDU 050050Z 26001KT 9999 FEW001 SCT011 BKN150 05/05 Q1003
Pressure 29.62 in
Visibility 6.2 miles
Clouds Few 100 ft
Scattered Clouds 1100 ft
Mostly Cloudy 15000 ft
Windchill 43 °F
Dew Point 34 °F
Humidity 70%
Rainfall 0.00 in
Snow Depth Not available.
UV 0 out of 12
Pollen Not available.
Air Quality Not available.
Flu Activity Not available.
METAR ENDU 050050Z 26001KT 9999 FEW001 SCT011 BKN150 05/05 Q1003

10-Day Weather Forecast

×

Almanac

Astronomy

Sep. 05, 2015 Rise Set
Actual Time
Civil Twilight
Nautical Twilight
Astronomical Twilight
Moon
Length of Visible Light
Length of Day
Tomorrow will be .
, % of the Moon is Illuminated

Today's Extremes

Country Highs Country Lows

Community

WunderPhotos

Upload Photos

1,852,372 photos uploaded!

WunderBlogs® & News

Nearby

Air Quality

  Air Quality AQ Index Pollutant
Not available.

Snow Depth

Station Depth Elevation

Earthquake Activity

City Distance Mag. Time & Date
Minimum magnitude displayed is 2.5.

Coastal Water Temperatures

Place Temperature

Stations

Nearby Weather Stations

Station Location Temp. Windchill Dew Point Humidity Wind Precip. Elev Updated Type